Rock Springs, Wisconsin
Current Conditions -  °F | °C
As of 4:15 AM on Monday 22 Dec 2014 (Local Time) from KC35 Reporting Station
Overcast Overcast  
Wind Chill: -3°   Ceiling: 1300
Heat Index:   Visibility: 7mi
Dew Point: -1°   Wind: 8mph
Humidity: 93%   Direction: 150°SSE
Pressure: 29.84"   Gusts: NA
Location:  43.49°N, 89.92°W
Report Text: KC35 221015Z AUTO 15007KT 130V190 7SM OVC013 01/00 A2984 RMK AO2 T00051005
Loading
Personal Weather Stations






























Interactive Weather Map New forecast layout! Learn more

10-Day Weather Forecast

Advertisements
Track Severe Weather on mobile